createdAt,value
2018-08-09T00:00:49.100Z,21.70
2018-08-09T00:03:18.309Z,21.70
2018-08-09T00:05:47.593Z,21.70
2018-08-09T00:08:16.761Z,21.69
2018-08-09T00:10:45.996Z,21.67
2018-08-09T00:13:15.134Z,21.58
2018-08-09T00:15:44.313Z,21.57
2018-08-09T00:18:13.484Z,21.55
2018-08-09T00:20:42.652Z,21.57
2018-08-09T00:23:11.880Z,21.57
2018-08-09T00:25:41.134Z,21.53
2018-08-09T00:28:10.350Z,21.51
2018-08-09T00:30:39.606Z,21.55
2018-08-09T00:33:08.797Z,21.58
2018-08-09T00:35:38.015Z,21.61
2018-08-09T00:38:07.182Z,21.63
2018-08-09T00:40:36.350Z,21.66
2018-08-09T00:43:05.588Z,21.63
2018-08-09T00:45:34.762Z,21.64
2018-08-09T00:48:04.000Z,21.64
2018-08-09T00:50:33.263Z,21.62
2018-08-09T00:53:02.444Z,21.53
2018-08-09T00:55:31.606Z,21.50
2018-08-09T00:58:00.846Z,21.49
2018-08-09T01:00:30.001Z,21.46
2018-08-09T01:02:59.219Z,21.39
2018-08-09T01:05:28.395Z,21.36
2018-08-09T01:07:57.569Z,21.35
2018-08-09T01:10:26.754Z,21.35
2018-08-09T01:12:55.903Z,21.35
2018-08-09T01:15:25.081Z,21.36
2018-08-09T01:17:54.349Z,21.38
2018-08-09T01:20:23.546Z,21.40
2018-08-09T01:22:52.732Z,21.38
2018-08-09T01:25:22.046Z,21.38
2018-08-09T01:27:51.245Z,21.41
2018-08-09T01:30:20.444Z,21.44
2018-08-09T01:32:49.700Z,21.43
2018-08-09T01:35:18.839Z,21.42
2018-08-09T01:37:48.023Z,21.42
2018-08-09T01:40:17.198Z,21.45
2018-08-09T01:43:03.343Z,21.47
2018-08-09T01:45:32.550Z,21.41
2018-08-09T01:48:01.820Z,21.39
2018-08-09T01:50:30.991Z,21.34
2018-08-09T01:53:00.174Z,21.31
2018-08-09T01:55:29.358Z,21.34
2018-08-09T01:57:58.602Z,21.33
2018-08-09T02:00:27.793Z,21.33
2018-08-09T02:02:56.970Z,21.32
2018-08-09T02:05:26.161Z,21.32
2018-08-09T02:07:55.372Z,21.35
2018-08-09T02:10:24.562Z,21.40
2018-08-09T02:12:53.757Z,21.44
2018-08-09T02:15:22.955Z,21.46
2018-08-09T02:17:52.134Z,21.45
2018-08-09T02:20:21.326Z,21.43
2018-08-09T02:22:50.503Z,21.38
2018-08-09T02:25:19.702Z,21.38
2018-08-09T02:27:48.904Z,21.35
2018-08-09T02:30:18.070Z,21.31
2018-08-09T02:32:47.268Z,21.30
2018-08-09T02:35:16.446Z,21.26
2018-08-09T02:37:45.609Z,21.19
2018-08-09T02:40:14.836Z,21.27
2018-08-09T02:42:44.105Z,21.18
2018-08-09T02:45:13.315Z,21.06
2018-08-09T02:47:42.631Z,20.94
2018-08-09T02:50:11.850Z,20.86
2018-08-09T02:52:41.030Z,20.80
2018-08-09T02:55:10.307Z,20.72
2018-08-09T02:57:39.514Z,20.65
2018-08-09T03:00:08.726Z,20.60
2018-08-09T03:02:38.003Z,20.59
2018-08-09T03:05:07.178Z,20.58
2018-08-09T03:07:36.445Z,20.51
2018-08-09T03:10:06.129Z,20.48
2018-08-09T03:12:35.358Z,20.41
2018-08-09T03:15:04.787Z,20.43
2018-08-09T03:17:33.979Z,20.37
2018-08-09T03:20:03.174Z,20.28
2018-08-09T03:22:32.378Z,20.29
2018-08-09T03:25:01.542Z,20.26
2018-08-09T03:27:30.718Z,20.22
2018-08-09T03:30:00.093Z,20.24
2018-08-09T03:32:29.253Z,20.22
2018-08-09T03:34:58.510Z,20.18
2018-08-09T03:37:27.735Z,20.17
2018-08-09T03:39:56.946Z,20.18
2018-08-09T03:42:26.139Z,20.22
2018-08-09T03:44:55.310Z,20.26
2018-08-09T03:47:24.519Z,20.22
2018-08-09T03:49:53.777Z,20.22
2018-08-09T03:52:23.004Z,20.23
2018-08-09T03:54:52.232Z,20.24
2018-08-09T03:57:21.428Z,20.19
2018-08-09T03:59:50.640Z,20.12
2018-08-09T04:02:19.898Z,20.05
2018-08-09T04:04:49.074Z,20.04
2018-08-09T04:07:18.409Z,20.02
2018-08-09T04:09:47.629Z,20.04
2018-08-09T04:12:17.107Z,20.02
2018-08-09T04:14:46.283Z,19.97
2018-08-09T04:17:19.117Z,19.99
2018-08-09T04:19:49.122Z,20.01
2018-08-09T04:22:18.776Z,20.08
2018-08-09T04:24:48.378Z,20.08
2018-08-09T04:27:17.805Z,20.13
2018-08-09T04:29:47.046Z,20.19
2018-08-09T04:32:16.357Z,20.21
2018-08-09T04:34:45.560Z,20.28
2018-08-09T04:37:14.731Z,20.32
2018-08-09T04:39:43.897Z,20.40
2018-08-09T04:42:15.998Z,20.45
2018-08-09T04:44:45.171Z,20.46
2018-08-09T04:47:14.362Z,20.51
2018-08-09T04:49:43.539Z,20.56
2018-08-09T04:52:12.751Z,20.63
2018-08-09T04:54:41.952Z,20.70
2018-08-09T04:57:11.122Z,20.77
2018-08-09T04:59:40.330Z,20.83
2018-08-09T05:02:09.499Z,20.89
2018-08-09T05:04:39.767Z,20.93
2018-08-09T05:07:08.967Z,20.93
2018-08-09T05:09:38.214Z,20.97
2018-08-09T05:12:07.426Z,20.97
2018-08-09T05:14:36.616Z,21.01
2018-08-09T05:17:05.812Z,20.97
2018-08-09T05:19:35.065Z,20.98
2018-08-09T05:22:04.246Z,20.98
2018-08-09T05:24:33.502Z,21.04
2018-08-09T05:27:02.686Z,21.06
2018-08-09T05:29:31.967Z,21.11
2018-08-09T05:32:01.139Z,21.20
2018-08-09T05:34:30.399Z,21.24
2018-08-09T05:36:59.642Z,21.32
2018-08-09T05:39:28.911Z,21.46
2018-08-09T05:41:58.103Z,21.58
2018-08-09T05:44:27.458Z,21.67
2018-08-09T05:46:56.660Z,21.83
2018-08-09T05:49:25.834Z,21.98
2018-08-09T05:51:55.054Z,22.04
2018-08-09T05:54:24.391Z,21.96
2018-08-09T05:56:53.563Z,22.06
2018-08-09T05:59:22.796Z,22.14
2018-08-09T06:01:52.000Z,22.16
2018-08-09T06:04:21.230Z,22.18
2018-08-09T06:06:50.455Z,22.18
2018-08-09T06:09:19.697Z,22.13
2018-08-09T06:11:48.951Z,22.09
2018-08-09T06:14:18.202Z,22.21
2018-08-09T06:16:47.477Z,22.38
2018-08-09T06:19:16.748Z,22.73
2018-08-09T06:21:45.940Z,23.16
2018-08-09T06:24:15.199Z,23.71
2018-08-09T06:26:44.338Z,24.00
2018-08-09T06:29:13.542Z,24.31
2018-08-09T06:31:42.743Z,24.56
2018-08-09T06:34:11.966Z,24.38
2018-08-09T06:36:41.158Z,24.42
2018-08-09T06:39:10.432Z,23.93
2018-08-09T06:41:40.130Z,23.89
2018-08-09T06:44:09.577Z,24.25
2018-08-09T06:46:38.825Z,24.55
2018-08-09T06:49:08.527Z,24.66
2018-08-09T06:51:44.287Z,24.57
2018-08-09T06:54:13.487Z,24.83
2018-08-09T06:56:42.698Z,24.89
2018-08-09T06:59:11.922Z,25.13
2018-08-09T07:01:41.089Z,24.71
2018-08-09T07:04:10.332Z,25.12
2018-08-09T07:06:39.542Z,25.27
2018-08-09T07:09:10.306Z,25.26
2018-08-09T07:11:39.525Z,25.61
2018-08-09T07:14:08.698Z,25.59
2018-08-09T07:16:37.907Z,25.76
2018-08-09T07:19:07.213Z,25.86
2018-08-09T07:21:36.465Z,26.30
2018-08-09T07:24:05.662Z,26.43
2018-08-09T07:26:34.962Z,26.41
2018-08-09T07:29:04.162Z,26.64
2018-08-09T07:31:33.566Z,26.68
2018-08-09T07:34:02.830Z,26.97
2018-08-09T07:36:32.217Z,26.83
2018-08-09T07:39:01.396Z,26.94
2018-08-09T07:41:30.626Z,26.93
2018-08-09T07:43:59.798Z,26.90
2018-08-09T07:46:29.003Z,27.04
2018-08-09T07:48:58.332Z,27.49
2018-08-09T07:51:27.558Z,27.44
2018-08-09T07:53:56.739Z,27.07
2018-08-09T07:56:25.978Z,27.34
2018-08-09T07:58:55.157Z,27.63
2018-08-09T08:01:24.425Z,27.75
2018-08-09T08:03:53.673Z,27.95
2018-08-09T08:06:22.928Z,27.76
2018-08-09T08:08:52.083Z,28.03
2018-08-09T08:11:21.413Z,28.02
2018-08-09T08:13:50.634Z,28.11
2018-08-09T08:16:19.843Z,28.58
2018-08-09T08:18:49.037Z,28.71
2018-08-09T08:21:18.263Z,28.55
2018-08-09T08:23:47.447Z,28.35
2018-08-09T08:26:16.683Z,28.76
2018-08-09T08:28:46.022Z,28.70
2018-08-09T08:31:15.326Z,28.99
2018-08-09T08:33:44.533Z,29.37
2018-08-09T08:36:13.771Z,29.11
2018-08-09T08:38:42.983Z,29.38
2018-08-09T08:41:12.191Z,29.40
2018-08-09T08:43:41.379Z,29.21
2018-08-09T08:46:10.551Z,29.52
2018-08-09T08:48:39.897Z,29.86
2018-08-09T08:51:09.074Z,29.53
2018-08-09T08:53:38.303Z,28.97
2018-08-09T08:56:07.544Z,29.35
2018-08-09T08:58:36.797Z,29.84
2018-08-09T09:01:06.113Z,29.24
2018-08-09T09:03:35.365Z,29.55
2018-08-09T09:06:04.576Z,29.50
2018-08-09T09:08:33.800Z,30.26
2018-08-09T09:11:02.971Z,29.64
2018-08-09T09:13:32.182Z,30.01
2018-08-09T09:16:01.423Z,30.03
2018-08-09T09:18:30.611Z,30.03
2018-08-09T09:20:59.897Z,30.46
2018-08-09T09:23:29.112Z,29.80
2018-08-09T09:25:58.291Z,30.08
2018-08-09T09:28:27.502Z,30.65
2018-08-09T09:30:56.731Z,30.53
2018-08-09T09:33:25.931Z,30.58
2018-08-09T09:35:55.210Z,30.46
2018-08-09T09:38:24.383Z,30.73
2018-08-09T09:40:53.537Z,30.17
2018-08-09T09:43:22.763Z,30.72
2018-08-09T09:45:51.985Z,30.50
2018-08-09T09:48:21.252Z,30.81
2018-08-09T09:50:50.445Z,31.15
2018-08-09T09:53:19.726Z,31.43
2018-08-09T09:55:48.918Z,31.75
2018-08-09T09:58:18.134Z,31.16
2018-08-09T10:00:52.783Z,31.31
2018-08-09T10:03:22.021Z,31.71
2018-08-09T10:05:51.196Z,31.18
2018-08-09T10:08:20.411Z,31.72
2018-08-09T10:10:49.701Z,31.39
2018-08-09T10:13:18.895Z,31.68
2018-08-09T10:15:48.283Z,31.61
2018-08-09T10:18:17.473Z,31.55
2018-08-09T10:20:46.768Z,31.62
2018-08-09T10:23:15.979Z,31.84
2018-08-09T10:25:45.222Z,31.99
2018-08-09T10:28:14.381Z,32.09
2018-08-09T10:30:43.633Z,31.52
2018-08-09T10:33:12.862Z,32.02
2018-08-09T10:35:42.105Z,32.47
2018-08-09T10:38:11.344Z,32.40
2018-08-09T10:40:47.997Z,32.35
2018-08-09T10:43:17.185Z,32.08
2018-08-09T10:45:53.053Z,32.59
2018-08-09T10:48:22.235Z,32.53
2018-08-09T10:50:51.490Z,31.58
2018-08-09T10:53:20.701Z,32.12
2018-08-09T10:55:50.101Z,32.44
2018-08-09T10:58:19.317Z,32.32
2018-08-09T11:00:48.565Z,32.49
2018-08-09T11:03:17.830Z,32.04
2018-08-09T11:05:47.071Z,32.37
2018-08-09T11:08:16.247Z,32.86
2018-08-09T11:10:45.469Z,33.12
2018-08-09T11:13:14.690Z,33.18
2018-08-09T11:15:43.974Z,32.77
2018-08-09T11:18:13.286Z,33.21
2018-08-09T11:20:43.234Z,33.19
2018-08-09T11:23:12.454Z,32.94
2018-08-09T11:25:41.667Z,32.97
2018-08-09T11:28:10.950Z,33.19
2018-08-09T11:30:40.206Z,33.41
2018-08-09T11:33:09.445Z,32.98
2018-08-09T11:35:38.677Z,33.28
2018-08-09T11:38:07.898Z,32.39
2018-08-09T11:40:37.142Z,32.80
2018-08-09T11:43:13.010Z,33.48
2018-08-09T11:45:42.038Z,33.33
2018-08-09T11:48:11.264Z,33.33
2018-08-09T11:50:40.450Z,33.41
2018-08-09T11:53:09.645Z,33.83
2018-08-09T11:55:38.843Z,33.19
2018-08-09T11:58:08.066Z,33.50
2018-08-09T12:00:37.283Z,33.76
2018-08-09T12:03:06.509Z,33.19
2018-08-09T12:05:35.748Z,33.14
2018-08-09T12:08:04.964Z,33.99
2018-08-09T12:10:34.209Z,34.04
2018-08-09T12:13:03.449Z,34.10
2018-08-09T12:15:32.711Z,34.35
2018-08-09T12:18:01.902Z,33.98
2018-08-09T12:20:31.130Z,33.88
2018-08-09T12:23:00.323Z,34.41
2018-08-09T12:25:29.522Z,34.77
2018-08-09T12:27:58.987Z,34.79
2018-08-09T12:30:28.276Z,34.67
2018-08-09T12:32:57.552Z,34.59
2018-08-09T12:35:26.846Z,34.10
2018-08-09T12:37:56.110Z,34.77
2018-08-09T12:40:25.384Z,35.03
2018-08-09T12:42:54.685Z,35.41
2018-08-09T12:45:23.964Z,34.76
2018-08-09T12:47:53.118Z,34.56
2018-08-09T12:50:22.293Z,34.86
2018-08-09T12:52:51.518Z,35.14
2018-08-09T12:55:20.697Z,35.32
2018-08-09T12:57:49.942Z,35.31
2018-08-09T13:00:19.181Z,35.27
2018-08-09T13:02:48.478Z,35.09
2018-08-09T13:05:17.697Z,34.65
2018-08-09T13:07:46.960Z,34.37
2018-08-09T13:10:16.162Z,34.23
2018-08-09T13:12:45.434Z,33.75
2018-08-09T13:15:14.721Z,33.70
2018-08-09T13:17:45.265Z,33.64
2018-08-09T13:20:17.895Z,33.50
2018-08-09T13:22:47.845Z,32.28
2018-08-09T13:25:17.158Z,30.18
2018-08-09T13:27:46.510Z,28.52
2018-08-09T13:30:15.780Z,28.00
2018-08-09T13:32:45.513Z,27.21
2018-08-09T13:35:14.735Z,26.76
2018-08-09T13:37:43.982Z,26.23
2018-08-09T13:40:13.263Z,25.91
2018-08-09T13:42:42.458Z,25.44
2018-08-09T13:45:14.663Z,25.16
2018-08-09T13:47:43.886Z,24.54
2018-08-09T13:50:13.826Z,23.53
2018-08-09T13:52:43.102Z,22.59
2018-08-09T13:55:14.189Z,22.15
2018-08-09T13:57:43.471Z,21.77
2018-08-09T14:00:13.882Z,21.55
2018-08-09T14:02:44.739Z,21.50
2018-08-09T14:05:13.930Z,21.46
2018-08-09T14:07:44.217Z,21.63
2018-08-09T14:10:13.976Z,21.70
2018-08-09T14:12:43.422Z,21.67
2018-08-09T14:15:14.682Z,21.60
2018-08-09T14:17:43.928Z,21.76
2018-08-09T14:20:16.146Z,21.76
2018-08-09T14:22:45.442Z,21.85
2018-08-09T14:25:14.790Z,22.02
2018-08-09T14:27:43.990Z,22.29
2018-08-09T14:30:15.859Z,22.54
2018-08-09T14:32:45.603Z,22.84
2018-08-09T14:35:16.260Z,23.04
2018-08-09T14:37:46.502Z,23.35
2018-08-09T14:40:16.377Z,23.52
2018-08-09T14:42:45.643Z,23.49
2018-08-09T14:45:16.435Z,23.74
2018-08-09T14:47:45.711Z,23.65
2018-08-09T14:50:14.820Z,23.83
2018-08-09T14:52:44.092Z,23.68
2018-08-09T14:55:13.950Z,23.66
2018-08-09T14:57:43.345Z,23.77
2018-08-09T15:00:18.323Z,23.90
2018-08-09T15:02:47.980Z,23.90
2018-08-09T15:05:17.771Z,23.85
2018-08-09T15:07:46.981Z,23.77
2018-08-09T15:10:17.519Z,23.83
2018-08-09T15:12:46.794Z,23.66
2018-08-09T15:15:16.037Z,23.61
2018-08-09T15:17:45.361Z,23.53
2018-08-09T15:20:14.887Z,23.49
2018-08-09T15:22:44.274Z,23.45
2018-08-09T15:25:13.745Z,23.44
2018-08-09T15:27:42.947Z,23.23
2018-08-09T15:30:16.610Z,23.25
2018-08-09T15:32:46.020Z,23.29
2018-08-09T15:35:15.372Z,23.31
2018-08-09T15:37:44.947Z,23.17
2018-08-09T15:40:15.047Z,23.26
2018-08-09T15:42:44.292Z,23.22
2018-08-09T15:45:15.290Z,23.25
2018-08-09T15:47:44.733Z,23.49
2018-08-09T15:50:17.585Z,23.53
2018-08-09T15:52:46.875Z,23.72
2018-08-09T15:55:17.617Z,24.59
2018-08-09T15:57:46.937Z,24.86
2018-08-09T16:00:19.808Z,25.43
2018-08-09T16:02:49.078Z,25.22
2018-08-09T16:05:18.323Z,25.09
2018-08-09T16:07:47.664Z,24.54
2018-08-09T16:10:17.995Z,24.51
2018-08-09T16:12:47.845Z,24.57
2018-08-09T16:15:18.668Z,24.22
2018-08-09T16:17:48.610Z,24.15
2018-08-09T16:20:18.019Z,24.12
2018-08-09T16:22:47.501Z,24.02
2018-08-09T16:25:18.690Z,24.26
2018-08-09T16:27:48.963Z,24.22
2018-08-09T16:30:21.958Z,24.45
2018-08-09T16:32:51.220Z,24.42
2018-08-09T16:35:20.667Z,24.45
2018-08-09T16:37:50.009Z,24.27
2018-08-09T16:40:23.587Z,24.18
2018-08-09T16:42:52.812Z,24.20
2018-08-09T16:45:22.834Z,24.08
2018-08-09T16:47:53.443Z,24.27
2018-08-09T16:50:24.130Z,24.31
2018-08-09T16:52:53.489Z,24.29
2018-08-09T16:55:24.100Z,24.18
2018-08-09T16:57:53.368Z,24.22
2018-08-09T17:00:24.268Z,24.23
2018-08-09T17:02:53.970Z,24.13
2018-08-09T17:05:26.181Z,24.10
2018-08-09T17:07:55.492Z,24.06
2018-08-09T17:10:25.547Z,23.96
2018-08-09T17:12:54.787Z,23.86
2018-08-09T17:15:26.922Z,23.86
2018-08-09T17:17:56.933Z,23.85
2018-08-09T17:20:29.624Z,23.86
2018-08-09T17:22:59.636Z,23.83
2018-08-09T17:25:28.884Z,23.66
2018-08-09T17:27:58.094Z,23.60
2018-08-09T17:30:28.278Z,23.45
2018-08-09T17:32:58.513Z,23.35
2018-08-09T17:35:27.780Z,23.28
2018-08-09T17:37:57.139Z,23.16
2018-08-09T17:40:31.416Z,23.07
2018-08-09T17:43:01.516Z,23.02
2018-08-09T17:45:32.826Z,22.88
2018-08-09T17:48:02.605Z,22.67
2018-08-09T17:50:31.818Z,22.57
2018-08-09T17:53:02.697Z,22.31
2018-08-09T17:55:32.678Z,22.23
2018-08-09T17:58:01.907Z,22.05
2018-08-09T18:00:32.519Z,21.97
2018-08-09T18:03:01.846Z,22.03
2018-08-09T18:05:31.099Z,21.93
2018-08-09T18:08:00.483Z,21.86
2018-08-09T18:10:32.365Z,21.86
2018-08-09T18:13:01.640Z,21.71
2018-08-09T18:15:31.554Z,21.64
2018-08-09T18:18:01.740Z,21.49
2018-08-09T18:20:33.539Z,21.47
2018-08-09T18:23:34.778Z,21.38
2018-08-09T18:26:04.059Z,21.32
2018-08-09T18:28:33.365Z,21.20
2018-08-09T18:31:02.908Z,21.19
2018-08-09T18:33:32.128Z,21.17
2018-08-09T18:36:01.379Z,21.08
2018-08-09T18:38:30.768Z,21.18
2018-08-09T18:41:00.019Z,21.22
2018-08-09T18:43:29.260Z,21.20
2018-08-09T18:45:59.365Z,21.09
2018-08-09T18:48:28.644Z,21.15
2018-08-09T18:50:57.926Z,21.11
2018-08-09T18:53:27.142Z,21.21
2018-08-09T18:55:56.367Z,21.20
2018-08-09T18:58:25.648Z,21.17
2018-08-09T19:00:54.853Z,21.12
2018-08-09T19:03:24.134Z,21.13
2018-08-09T19:05:53.340Z,21.20
2018-08-09T19:08:22.625Z,21.18
2018-08-09T19:10:51.874Z,21.12
2018-08-09T19:13:21.062Z,21.10
2018-08-09T19:15:50.281Z,21.07
2018-08-09T19:18:19.472Z,21.08
2018-08-09T19:20:48.678Z,21.06
2018-08-09T19:23:18.090Z,21.03
2018-08-09T19:25:47.293Z,20.95
2018-08-09T19:28:16.516Z,20.88
2018-08-09T19:30:45.827Z,20.80
2018-08-09T19:33:15.104Z,20.72
2018-08-09T19:35:44.338Z,20.81
2018-08-09T19:38:13.591Z,20.80
2018-08-09T19:40:42.852Z,20.77
2018-08-09T19:43:12.057Z,20.75
2018-08-09T19:45:41.321Z,20.76
2018-08-09T19:48:10.583Z,20.78
2018-08-09T19:50:39.776Z,20.77
2018-08-09T19:53:09.090Z,20.72
2018-08-09T19:55:38.291Z,20.72
2018-08-09T19:58:07.534Z,20.72
2018-08-09T20:00:36.836Z,20.73
2018-08-09T20:03:06.158Z,20.62
2018-08-09T20:05:35.417Z,20.61
2018-08-09T20:08:04.749Z,20.57
2018-08-09T20:10:35.058Z,20.56
2018-08-09T20:13:04.259Z,20.58
2018-08-09T20:15:33.554Z,20.61
2018-08-09T20:18:02.788Z,20.53
2018-08-09T20:20:32.015Z,20.49
2018-08-09T20:23:01.283Z,20.51
2018-08-09T20:25:30.511Z,20.45
2018-08-09T20:27:59.809Z,20.40
2018-08-09T20:30:29.016Z,20.33
2018-08-09T20:32:58.227Z,20.27
2018-08-09T20:35:27.458Z,20.26
2018-08-09T20:37:56.659Z,20.24
2018-08-09T20:40:25.920Z,20.21
2018-08-09T20:42:58.156Z,20.17
2018-08-09T20:45:27.383Z,20.18
2018-08-09T20:47:56.666Z,20.26
2018-08-09T20:50:27.437Z,20.28
2018-08-09T20:52:56.644Z,20.31
2018-08-09T20:55:25.965Z,20.38
2018-08-09T20:57:56.022Z,20.41
2018-08-09T21:00:30.780Z,20.46
2018-08-09T21:03:00.839Z,20.53
2018-08-09T21:05:37.903Z,20.58
2018-08-09T21:08:07.143Z,20.48
2018-08-09T21:10:36.187Z,20.47
2018-08-09T21:13:05.389Z,20.48
2018-08-09T21:15:34.700Z,20.46
2018-08-09T21:18:03.798Z,20.47
2018-08-09T21:20:33.053Z,20.51
2018-08-09T21:23:02.261Z,20.48
2018-08-09T21:25:31.454Z,20.47
2018-08-09T21:28:00.650Z,20.47
2018-08-09T21:30:29.855Z,20.40
2018-08-09T21:32:59.074Z,20.28
2018-08-09T21:35:28.299Z,20.23
2018-08-09T21:37:57.520Z,20.25
2018-08-09T21:40:26.703Z,20.27
2018-08-09T21:42:55.902Z,20.30
2018-08-09T21:45:25.201Z,20.29
2018-08-09T21:47:54.387Z,20.27
2018-08-09T21:50:23.626Z,20.37
2018-08-09T21:52:52.915Z,20.54
2018-08-09T21:55:22.110Z,20.42
2018-08-09T21:57:51.347Z,20.34
2018-08-09T22:00:51.733Z,20.37
2018-08-09T22:03:23.185Z,20.31
2018-08-09T22:05:57.744Z,20.33
2018-08-09T22:08:32.130Z,20.26
2018-08-09T22:11:06.511Z,20.28
2018-08-09T22:13:40.915Z,20.21
2018-08-09T22:16:15.250Z,20.13
2018-08-09T22:18:49.571Z,20.08
2018-08-09T22:21:23.990Z,20.13
2018-08-09T22:23:53.170Z,20.14
2018-08-09T22:26:22.414Z,20.08
2018-08-09T22:28:51.703Z,20.03
2018-08-09T22:31:20.870Z,20.00
2018-08-09T22:33:50.211Z,19.98
2018-08-09T22:36:19.496Z,19.89
2018-08-09T22:38:48.698Z,19.78
2018-08-09T22:41:18.186Z,19.67
2018-08-09T22:43:47.797Z,19.62
2018-08-09T22:46:17.037Z,19.61
2018-08-09T22:48:46.835Z,19.62
2018-08-09T22:51:16.107Z,19.64
2018-08-09T22:53:45.292Z,19.67
2018-08-09T22:56:14.507Z,19.76
2018-08-09T22:58:43.732Z,19.80
2018-08-09T23:01:12.983Z,19.85
2018-08-09T23:03:42.700Z,19.88
2018-08-09T23:06:12.344Z,19.92
2018-08-09T23:08:42.028Z,19.99
2018-08-09T23:11:11.624Z,20.22
2018-08-09T23:19:39.968Z,20.21
2018-08-09T23:22:09.300Z,20.10
2018-08-09T23:24:38.704Z,20.06
2018-08-09T23:27:08.097Z,20.04
2018-08-09T23:29:37.404Z,19.97
2018-08-09T23:32:06.749Z,19.89
2018-08-09T23:34:36.021Z,19.76
2018-08-09T23:37:05.349Z,19.71
2018-08-09T23:39:34.599Z,19.61
2018-08-09T23:42:03.998Z,19.51
2018-08-09T23:44:33.036Z,19.43
2018-08-09T23:47:02.309Z,19.32
2018-08-09T23:49:31.754Z,19.26
2018-08-09T23:52:01.155Z,19.13
2018-08-09T23:54:30.497Z,19.04
2018-08-09T23:56:59.806Z,19.03
2018-08-09T23:59:29.095Z,18.98
